Time;durP1;ratioP1;P1;durP2;ratioP2;P2;SDS_P1;SDS_P2;PMS_P1;PMS_P2;Temp;Humidity;BMP_temperature;BMP_pressure;BME280_temperature;BME280_humidity;BME280_pressure;Samples;Min_cycle;Max_cycle;Signal;HPM_P1;HPM_P2
2023/09/14 00:01:29;;;;;;;29.17;19.17;;;;;;;25.14;55.51;101323.06;4923015;28;20058;-82
2023/09/14 00:03:56;;;;;;;37.63;23.77;;;;;;;25.14;54.90;101314.91;4928246;28;20158;-80
2023/09/14 00:06:27;;;;;;;28.65;17.48;;;;;;;24.19;55.63;101159.88;4933450;28;20082;-79
2023/09/14 00:08:54;;;;;;;34.45;22.42;;;;;;;24.94;55.39;101282.41;4924367;28;20173;-81
2023/09/14 00:11:22;;;;;;;38.50;24.65;;;;;;;25.12;55.22;101299.88;4928191;28;20125;-80
2023/09/14 00:13:52;;;;;;;34.85;21.85;;;;;;;25.08;55.92;101304.94;4935548;28;20061;-80
2023/09/14 00:16:20;;;;;;;;;;;;;;;25.02;55.97;101294.91;4932133;28;20054;-79
2023/09/14 00:18:47;;;;;;;38.30;19.83;;;;;;;25.02;55.82;101288.66;4932645;28;19996;-80
2023/09/14 00:21:14;;;;;;;30.80;21.42;;;;;;;24.98;55.97;101292.84;4935031;28;20054;-79
2023/09/14 00:23:41;;;;;;;36.53;23.58;;;;;;;24.55;55.88;101236.41;4951978;28;20046;-79
2023/09/14 00:26:15;;;;;;;27.65;20.38;;;;;;;24.90;56.42;101289.34;4942381;28;20046;-80
2023/09/14 00:28:44;;;;;;;37.20;22.83;;;;;;;24.77;56.09;101264.94;4936771;28;20043;-79
2023/09/14 00:31:11;;;;;;;29.92;21.58;;;;;;;24.81;56.48;101285.19;4935169;28;20717;-79
2023/09/14 00:33:38;;;;;;;36.78;23.15;;;;;;;24.33;56.40;101214.94;4919889;28;20717;-79
2023/09/14 00:36:38;;;;;;;35.70;22.65;;;;;;;24.86;56.42;101293.53;4931643;28;20058;-79
2023/09/14 00:39:08;;;;;;;32.95;20.98;;;;;;;24.77;56.35;101286.66;4921862;28;20247;-78
2023/09/14 00:41:40;;;;;;;30.90;21.02;;;;;;;24.66;56.43;101269.16;4924781;28;20338;-80
2023/09/14 00:44:10;;;;;;;36.28;23.90;;;;;;;24.87;56.29;101287.03;4909423;28;20053;-78
2023/09/14 00:46:37;;;;;;;29.98;20.55;;;;;;;24.81;56.54;101287.91;4916130;28;20050;-78
2023/09/14 00:49:05;;;;;;;33.72;22.48;;;;;;;24.80;56.60;101283.50;4915677;28;20718;-79
2023/09/14 00:51:34;;;;;;;36.03;22.67;;;;;;;24.62;56.45;101246.19;4925769;28;20341;-79
2023/09/14 00:54:03;;;;;;;29.70;21.13;;;;;;;24.64;56.66;101262.28;4923904;28;20410;-78
2023/09/14 00:56:31;;;;;;;21.67;17.35;;;;;;;24.87;56.85;101291.63;4911410;28;20347;-79
2023/09/14 00:58:58;;;;;;;21.50;16.27;;;;;;;24.59;56.78;101241.19;4933846;28;20129;-78
2023/09/14 01:01:25;;;;;;;30.48;19.73;;;;;;;24.76;56.49;101268.72;4931394;28;20054;-79
2023/09/14 01:03:56;;;;;;;24.83;16.98;;;;;;;24.92;56.67;101291.81;4916632;28;20443;-80
2023/09/14 01:06:25;;;;;;;30.73;21.55;;;;;;;24.74;56.25;101259.94;4932918;28;20061;-78
2023/09/14 01:08:54;;;;;;;29.08;19.70;;;;;;;24.57;56.83;101237.88;4916829;28;20053;-80
2023/09/14 01:11:21;;;;;;;16.63;13.32;;;;;;;24.88;57.20;101296.00;4913183;28;20199;-80
2023/09/14 01:14:22;;;;;;;30.80;19.55;;;;;;;24.83;57.41;101288.53;4911045;28;20070;-79
2023/09/14 01:17:21;;;;;;;25.42;18.73;;;;;;;24.84;56.68;101287.47;4938996;28;20039;-78
2023/09/14 01:20:01;;;;;;;18.98;13.50;;;;;;;24.87;57.09;101295.19;4927743;28;20066;-79
2023/09/14 01:22:45;;;;;;;22.75;16.83;;;;;;;24.93;57.38;101297.06;4918642;28;20255;-79
2023/09/14 01:25:32;;;;;;;21.88;14.88;;;;;;;24.92;56.50;101303.50;4937695;28;20473;-81
2023/09/14 01:28:14;;;;;;;28.00;19.80;;;;;;;24.88;56.92;101283.28;4935397;28;20051;-80
2023/09/14 01:30:45;;;;;;;21.67;15.10;;;;;;;24.87;56.87;101281.59;4925554;28;20046;-80
2023/09/14 01:33:15;;;;;;;30.63;18.10;;;;;;;24.79;56.78;101262.84;4932765;28;20406;-79
2023/09/14 01:36:07;;;;;;;22.75;15.88;;;;;;;24.98;57.92;101279.25;4935311;28;20082;-80
2023/09/14 01:38:38;;;;;;;25.13;15.18;;;;;;;25.00;56.80;101279.88;4927499;28;20552;-80
2023/09/14 01:41:06;;;;;;;22.80;16.30;;;;;;;24.80;56.30;101250.09;4935045;28;20550;-79
2023/09/14 01:43:33;;;;;;;24.42;17.05;;;;;;;24.91;55.95;101282.84;4922940;28;20454;-81
2023/09/14 01:46:02;;;;;;;21.77;16.92;;;;;;;24.96;55.81;101284.94;4924286;28;20142;-79
2023/09/14 01:48:29;;;;;;;20.17;13.45;;;;;;;24.86;57.52;101269.09;4933199;28;20078;-79
2023/09/14 01:50:58;;;;;;;21.23;15.30;;;;;;;24.94;56.85;101284.31;4916647;28;20054;-80
2023/09/14 01:53:25;;;;;;;33.47;16.35;;;;;;;24.64;56.21;101243.28;4927863;28;20054;-80
2023/09/14 01:55:53;;;;;;;22.52;15.75;;;;;;;24.91;56.69;101277.41;4930860;28;20050;-80
2023/09/14 01:58:23;;;;;;;23.98;16.65;;;;;;;24.89;56.05;101278.69;4937773;28;20070;-78
2023/09/14 02:00:50;;;;;;;21.83;14.32;;;;;;;24.88;56.65;101283.28;4934237;28;20057;-81
2023/09/14 02:03:17;;;;;;;22.10;16.88;;;;;;;24.61;56.17;101235.53;4931765;28;20054;-80
2023/09/14 02:05:44;;;;;;;21.80;15.85;;;;;;;24.65;56.14;101256.63;4920692;28;20744;-79
2023/09/14 02:08:12;;;;;;;21.50;16.48;;;;;;;24.84;57.12;101282.03;4918306;29;20206;-80
2023/09/14 02:10:39;;;;;;;22.98;17.08;;;;;;;24.61;56.17;101238.25;4920195;29;20395;-81
2023/09/14 02:13:16;;;;;;;26.58;16.60;;;;;;;24.33;56.64;101214.09;4926955;29;20055;-79
2023/09/14 02:15:42;;;;;;;24.23;16.45;;;;;;;24.76;56.14;101282.28;4924514;29;20059;-80
2023/09/14 02:18:09;;;;;;;23.55;15.52;;;;;;;24.37;56.79;101221.63;4919696;29;20455;-80
2023/09/14 02:20:38;;;;;;;20.98;14.65;;;;;;;24.35;57.07;101218.28;4918707;29;20051;-78
2023/09/14 02:23:06;;;;;;;18.73;14.38;;;;;;;24.94;57.20;101281.59;4918511;29;20078;-78
2023/09/14 02:25:33;;;;;;;17.52;12.77;;;;;;;25.07;57.27;101288.84;4911059;29;20051;-79
2023/09/14 02:28:00;;;;;;;23.33;15.68;;;;;;;24.87;56.23;101270.75;4916698;29;20043;-79
2023/09/14 02:30:29;;;;;;;19.73;15.75;;;;;;;24.76;56.26;101274.16;4913435;29;20437;-80
2023/09/14 02:33:03;;;;;;;23.27;15.13;;;;;;;23.95;57.03;101150.53;4916628;29;20083;-79
2023/09/14 02:35:35;;;;;;;22.67;15.65;;;;;;;24.70;56.43;101283.13;4911651;28;20052;-78
2023/09/14 02:38:07;;;;;;;20.27;15.70;;;;;;;23.66;56.93;101138.25;4911243;28;20479;-79
2023/09/14 02:40:38;;;;;;;20.95;14.55;;;;;;;24.54;57.43;101281.72;4915360;28;20043;-78
2023/09/14 02:43:05;;;;;;;19.05;14.27;;;;;;;24.62;57.90;101267.09;4918725;29;20191;-79
2023/09/14 02:45:32;;;;;;;15.40;12.10;;;;;;;24.77;57.97;101267.66;4915126;29;20051;-78
2023/09/14 02:48:00;;;;;;;19.85;13.52;;;;;;;24.80;57.80;101242.78;4911175;29;20478;-79
2023/09/14 02:50:34;;;;;;;19.13;13.48;;;;;;;25.05;57.63;101269.19;4893581;29;20422;-79
2023/09/14 02:53:11;;;;;;;24.45;14.55;;;;;;;24.85;55.88;101267.41;4897313;29;20483;-79
2023/09/14 02:55:49;;;;;;;19.63;13.77;;;;;;;24.67;56.18;101283.56;4898911;29;20082;-77
2023/09/14 02:58:22;;;;;;;18.70;14.45;;;;;;;24.42;56.77;101270.66;4906811;29;20496;-79
2023/09/14 03:00:49;;;;;;;22.05;14.85;;;;;;;24.37;57.00;101284.03;4897868;29;20082;-78
2023/09/14 03:03:17;;;;;;;22.40;14.27;;;;;;;24.31;57.02;101279.44;4922353;28;20067;-79
2023/09/14 03:05:48;;;;;;;16.73;12.63;;;;;;;24.31;57.31;101276.72;4920136;28;20748;-78
2023/09/14 03:08:18;;;;;;;17.20;12.50;;;;;;;24.08;57.31;101248.16;4936787;28;20610;-78
2023/09/14 03:10:45;;;;;;;19.88;14.02;;;;;;;24.01;57.06;101233.78;4937664;28;20270;-79
2023/09/14 03:13:12;;;;;;;17.15;12.55;;;;;;;24.26;57.41;101282.75;4930350;28;20053;-79
2023/09/14 03:15:38;;;;;;;20.05;13.63;;;;;;;24.21;57.12;101260.03;4925972;28;20395;-79
2023/09/14 03:18:06;;;;;;;20.77;13.60;;;;;;;24.17;57.26;101237.91;4937047;28;20306;-81
2023/09/14 03:20:34;;;;;;;21.17;13.45;;;;;;;24.21;56.83;101254.63;4931890;28;20418;-78
2023/09/14 03:23:02;;;;;;;17.17;12.82;;;;;;;24.19;56.73;101252.09;4935539;28;20546;-79
2023/09/14 03:25:29;;;;;;;17.63;14.15;;;;;;;24.18;57.12;101245.03;4932447;28;20043;-80
2023/09/14 03:27:56;;;;;;;26.02;12.77;;;;;;;24.15;56.70;101250.00;4937205;28;20046;-79
2023/09/14 03:30:23;;;;;;;21.33;12.45;;;;;;;23.96;56.81;101227.28;4926846;28;20264;-81
2023/09/14 03:32:50;;;;;;;16.98;12.40;;;;;;;23.65;56.91;101177.25;4925742;28;20459;-79
2023/09/14 03:35:19;;;;;;;18.75;12.35;;;;;;;24.18;56.63;101261.28;4939518;28;20043;-80
2023/09/14 03:37:46;;;;;;;18.33;12.73;;;;;;;23.94;57.71;101222.09;4934726;28;20470;-80
2023/09/14 03:40:14;;;;;;;19.65;12.57;;;;;;;24.19;56.64;101262.13;4925406;28;20125;-78
2023/09/14 03:42:41;;;;;;;16.98;12.77;;;;;;;24.16;57.42;101265.25;4911221;28;20046;-80
2023/09/14 03:45:10;;;;;;;15.02;11.20;;;;;;;24.37;58.00;101270.47;4927567;28;20129;-80
2023/09/14 03:47:36;;;;;;;17.67;13.25;;;;;;;24.56;57.34;101270.63;4929578;28;20487;-80
2023/09/14 03:50:03;;;;;;;18.20;11.90;;;;;;;24.58;56.70;101271.25;4939365;28;20055;-78
2023/09/14 03:52:30;;;;;;;20.42;12.00;;;;;;;24.50;55.96;101273.16;4939578;28;20423;-79
2023/09/14 03:55:00;;;;;;;17.00;11.88;;;;;;;24.43;55.93;101279.63;4940853;28;20584;-78
2023/09/14 03:57:28;;;;;;;15.10;12.25;;;;;;;24.28;56.50;101266.28;4937027;28;20066;-79
2023/09/14 03:59:57;;;;;;;20.50;12.00;;;;;;;24.25;56.33;101277.56;4925147;28;20089;-78
2023/09/14 04:02:31;;;;;;;16.15;11.85;;;;;;;24.09;56.28;101274.22;4929420;28;20580;-78
2023/09/14 04:05:19;;;;;;;19.00;11.73;;;;;;;23.77;56.99;101227.09;4903099;28;20065;-79
2023/09/14 04:08:07;;;;;;;18.45;12.27;;;;;;;23.91;56.72;101276.75;4903142;28;20149;-80
2023/09/14 04:10:47;;;;;;;23.38;12.85;;;;;;;23.68;57.46;101245.41;4930459;28;20556;-80
2023/09/14 04:13:36;;;;;;;16.98;11.98;;;;;;;23.84;57.23;101271.31;4911915;28;20473;-79
2023/09/14 04:16:07;;;;;;;16.40;11.45;;;;;;;23.46;57.26;101219.53;4921827;28;20133;-78
2023/09/14 04:18:36;;;;;;;16.58;12.57;;;;;;;23.77;57.69;101272.34;4939890;28;20390;-79
2023/09/14 04:21:05;;;;;;;20.30;12.48;;;;;;;23.55;57.59;101241.88;4936056;28;20237;-80
2023/09/14 04:23:32;;;;;;;17.02;12.18;;;;;;;23.59;58.22;101257.50;4954150;28;20057;-78
2023/09/14 04:26:03;;;;;;;17.92;11.88;;;;;;;23.64;58.33;101276.69;4934007;28;20448;-80
2023/09/14 04:28:30;;;;;;;17.08;11.70;;;;;;;23.41;58.00;101238.28;4931172;28;20051;-79
2023/09/14 04:31:01;;;;;;;21.73;12.48;;;;;;;23.57;58.19;101259.59;4929177;28;20363;-77
2023/09/14 04:33:33;;;;;;;27.30;12.25;;;;;;;23.60;58.12;101270.00;4957529;28;20295;-78
2023/09/14 04:36:08;;;;;;;16.73;11.20;;;;;;;23.57;57.94;101265.00;4930148;28;20082;-78
2023/09/14 04:38:38;;;;;;;22.13;13.45;;;;;;;23.46;57.99;101258.31;4936149;28;20491;-79
2023/09/14 04:41:05;;;;;;;22.50;11.95;;;;;;;23.47;58.06;101264.56;4937861;28;20142;-79
2023/09/14 04:43:32;;;;;;;18.02;12.10;;;;;;;23.44;58.27;101262.25;4926901;28;20510;-78
2023/09/14 04:46:06;;;;;;;19.20;13.55;;;;;;;23.40;58.09;101255.56;4937217;28;20089;-77
2023/09/14 04:48:34;;;;;;;23.85;13.25;;;;;;;23.56;58.09;101285.00;4933685;28;20046;-78
2023/09/14 04:51:01;;;;;;;20.40;12.77;;;;;;;23.55;58.19;101279.81;4938010;28;20050;-78
2023/09/14 04:53:34;;;;;;;19.92;13.60;;;;;;;23.43;58.06;101271.44;4931477;28;20050;-80
2023/09/14 04:56:17;;;;;;;24.88;12.35;;;;;;;23.40;58.19;101274.53;4920488;28;20054;-78
2023/09/14 04:59:01;;;;;;;20.23;12.27;;;;;;;23.24;58.26;101249.50;4908198;28;20497;-79
2023/09/14 05:01:30;;;;;;;24.88;12.60;;;;;;;23.55;58.13;101282.53;4904456;28;20054;-78
2023/09/14 05:03:57;;;;;;;21.55;14.68;;;;;;;23.53;58.05;101285.41;4929668;28;20062;-79
2023/09/14 05:06:24;;;;;;;17.83;11.88;;;;;;;23.51;58.07;101287.50;4940034;28;20050;-77
2023/09/14 05:08:54;;;;;;;20.40;11.63;;;;;;;23.39;57.96;101272.88;4912694;28;20641;-77
2023/09/14 05:11:23;;;;;;;15.57;10.45;;;;;;;23.36;57.68;101276.00;4936536;28;20085;-78
2023/09/14 05:13:50;;;;;;;21.95;10.85;;;;;;;23.46;58.14;101290.81;4939583;28;20483;-78
2023/09/14 05:16:16;;;;;;;20.65;11.13;;;;;;;23.48;57.88;101287.91;4939890;28;20101;-78
2023/09/14 05:18:45;;;;;;;19.73;11.43;;;;;;;23.51;58.42;101294.78;4925230;28;20133;-78
2023/09/14 05:21:12;;;;;;;19.23;13.38;;;;;;;23.52;58.25;101288.31;4937645;28;20060;-78
2023/09/14 05:23:39;;;;;;;20.35;12.30;;;;;;;23.20;58.31;101242.81;4938046;28;20046;-78
2023/09/14 05:26:06;;;;;;;24.02;11.93;;;;;;;23.54;58.26;101303.34;4934595;28;20369;-79
2023/09/14 05:28:33;;;;;;;21.98;12.45;;;;;;;23.52;58.36;101293.75;4926127;28;20153;-78
2023/09/14 05:31:00;;;;;;;16.02;10.95;;;;;;;23.74;59.19;101308.00;4939183;28;20050;-78
2023/09/14 05:33:32;;;;;;;25.73;11.40;;;;;;;23.85;58.31;101301.97;4922387;28;20065;-78
2023/09/14 05:36:10;;;;;;;19.05;10.52;;;;;;;23.81;57.46;101289.84;4913568;28;20613;-80
2023/09/14 05:38:38;;;;;;;21.10;11.43;;;;;;;23.80;57.47;101301.75;4939470;28;20049;-79
2023/09/14 05:41:05;;;;;;;21.30;12.35;;;;;;;23.78;57.60;101315.50;4928872;28;20140;-77
2023/09/14 05:43:31;;;;;;;20.40;11.48;;;;;;;23.71;58.12;101320.06;4943006;28;20429;-77
2023/09/14 05:46:13;;;;;;;21.58;11.85;;;;;;;23.54;58.21;101291.66;4927371;28;20469;-81
2023/09/14 05:48:45;;;;;;;19.80;10.80;;;;;;;23.65;58.13;101310.03;4906061;28;20077;-76
2023/09/14 05:51:17;;;;;;;18.92;11.23;;;;;;;23.65;58.15;101316.28;4930417;28;20051;-78
2023/09/14 05:53:45;;;;;;;18.17;11.27;;;;;;;23.23;57.90;101245.13;4962658;28;20418;-79
2023/09/14 05:56:12;;;;;;;26.20;11.48;;;;;;;23.58;57.97;101304.59;4944240;28;20080;-77
2023/09/14 05:58:42;;;;;;;21.60;11.15;;;;;;;23.77;58.06;101321.16;4939340;28;20182;-79
2023/09/14 06:01:21;;;;;;;19.17;11.52;;;;;;;23.85;57.64;101323.66;4918920;28;20063;-79
2023/09/14 06:03:54;;;;;;;19.77;10.52;;;;;;;23.88;56.92;101323.22;4934243;28;20464;-78
2023/09/14 06:06:30;;;;;;;18.55;10.52;;;;;;;23.88;56.90;101328.66;4892689;28;20168;-78
2023/09/14 06:09:04;;;;;;;16.63;10.35;;;;;;;23.59;56.72;101273.78;4940374;28;20058;-78
2023/09/14 06:11:31;;;;;;;23.52;11.00;;;;;;;23.83;57.03;101312.19;4940638;28;20079;-77
2023/09/14 06:14:01;;;;;;;16.80;10.60;;;;;;;23.86;57.13;101311.75;4942118;28;20145;-77
2023/09/14 06:16:31;;;;;;;14.90;11.07;;;;;;;24.03;56.57;101334.75;4946560;28;20122;-78
2023/09/14 06:18:58;;;;;;;18.25;9.82;;;;;;;23.92;56.79;101316.38;4934758;28;20054;-77
2023/09/14 06:21:29;;;;;;;18.83;10.80;;;;;;;24.09;56.69;101338.50;4928580;28;20481;-80
2023/09/14 06:23:56;;;;;;;29.95;12.35;;;;;;;24.15;57.08;101336.81;4935532;28;20042;-79
2023/09/14 06:26:22;;;;;;;32.17;12.10;;;;;;;24.19;56.88;101336.19;4945837;28;20208;-79
2023/09/14 06:28:52;;;;;;;18.67;10.57;;;;;;;24.16;56.95;101327.66;4941879;28;20445;-80
2023/09/14 06:31:19;;;;;;;16.23;9.75;;;;;;;24.27;57.13;101336.00;4938985;28;20509;-79
2023/09/14 06:33:46;;;;;;;58.38;12.32;;;;;;;24.48;55.35;101351.22;4926391;28;20133;-80
2023/09/14 06:36:19;;;;;;;14.77;9.20;;;;;;;23.66;57.18;101214.97;4930387;28;20518;-79
2023/09/14 06:38:49;;;;;;;26.92;11.13;;;;;;;24.49;56.50;101350.22;4934871;28;20153;-78
2023/09/14 06:41:17;;;;;;;20.33;10.75;;;;;;;24.50;56.06;101356.47;4956062;28;20133;-79
2023/09/14 06:43:45;;;;;;;18.25;9.77;;;;;;;24.43;56.62;101332.00;4947510;28;20306;-81
2023/09/14 06:46:14;;;;;;;18.20;10.18;;;;;;;24.73;56.37;101361.44;4953098;28;20057;-79
2023/09/14 06:48:41;;;;;;;19.88;10.02;;;;;;;24.76;55.36;101365.59;4945841;28;20050;-78
2023/09/14 06:51:08;;;;;;;22.38;10.80;;;;;;;24.57;55.22;101338.28;4945134;28;20282;-80
2023/09/14 06:53:37;;;;;;;35.95;11.82;;;;;;;24.80;55.05;101364.97;4944693;28;20332;-78
2023/09/14 06:56:09;;;;;;;18.17;10.65;;;;;;;24.74;54.89;101363.13;4949214;28;20134;-79
2023/09/14 06:58:36;;;;;;;21.80;11.65;;;;;;;24.69;55.67;101354.78;4927873;28;20053;-78
2023/09/14 07:01:04;;;;;;;19.88;10.77;;;;;;;24.69;55.82;101354.78;4936362;28;20054;-78
2023/09/14 07:03:32;;;;;;;20.85;10.98;;;;;;;24.44;55.62;101303.84;4923838;28;20378;-79
2023/09/14 07:06:01;;;;;;;19.42;11.70;;;;;;;24.87;55.08;101363.06;4924760;28;20754;-79
2023/09/14 07:08:31;;;;;;;20.85;10.45;;;;;;;25.00;55.10;101366.78;4945989;28;20051;-75
2023/09/14 07:11:04;;;;;;;17.55;10.27;;;;;;;24.84;54.93;101336.34;4933536;28;20251;-77
2023/09/14 07:13:34;;;;;;;21.23;11.90;;;;;;;24.69;54.32;101305.91;4935914;28;20478;-79
2023/09/14 07:16:03;;;;;;;17.85;11.38;;;;;;;25.20;54.00;101367.63;4935483;28;20400;-80
2023/09/14 07:18:35;;;;;;;21.65;10.85;;;;;;;25.06;54.18;101353.19;4932282;28;20110;-78
2023/09/14 07:21:09;;;;;;;15.35;9.93;;;;;;;25.23;56.07;101356.31;4943994;28;21089;-80
2023/09/14 07:23:41;;;;;;;18.40;10.50;;;;;;;25.26;54.71;101350.44;4940181;28;20098;-79
2023/09/14 07:26:08;;;;;;;18.20;11.20;;;;;;;25.06;54.07;101312.47;4934509;28;20348;-80
2023/09/14 07:28:35;;;;;;;14.85;11.00;;;;;;;25.28;54.67;101361.94;4932719;28;20086;-79
2023/09/14 07:31:05;;;;;;;19.58;12.80;;;;;;;25.43;54.34;101371.69;4943165;28;20046;-79
2023/09/14 07:33:32;;;;;;;10.57;9.15;;;;;;;25.35;55.19;101375.50;4943452;28;20050;-80
2023/09/14 07:36:01;;;;;;;20.15;12.82;;;;;;;25.18;54.85;101355.28;4944477;28;20628;-80
2023/09/14 07:38:28;;;;;;;17.85;12.10;;;;;;;25.37;54.73;101379.66;4941174;28;20683;-76
2023/09/14 07:41:00;;;;;;;15.57;12.85;;;;;;;25.27;55.64;101367.56;4928995;28;20404;-79
2023/09/14 07:43:28;;;;;;;21.30;12.95;;;;;;;24.89;54.98;101312.09;4938040;28;20086;-78
2023/09/14 07:45:56;;;;;;;17.48;12.55;;;;;;;25.39;54.51;101393.03;4945236;28;20140;-78
2023/09/14 07:48:23;;;;;;;23.13;12.05;;;;;;;25.48;54.34;101401.78;4930135;28;20344;-78
2023/09/14 07:50:52;;;;;;;17.40;11.75;;;;;;;25.43;54.55;101398.88;4932948;28;20564;-79
2023/09/14 07:53:19;;;;;;;21.00;11.68;;;;;;;25.40;55.10;101400.13;4940513;28;20503;-78
2023/09/14 07:55:54;;;;;;;25.20;12.77;;;;;;;25.31;55.12;101391.38;4904065;28;20054;-80
2023/09/14 07:58:22;;;;;;;16.27;11.93;;;;;;;25.43;54.77;101407.03;4923900;28;20077;-78
2023/09/14 08:00:49;;;;;;;19.42;11.10;;;;;;;25.38;54.52;101381.31;4921854;28;20089;-80
2023/09/14 08:03:16;;;;;;;15.43;11.07;;;;;;;25.56;54.43;101412.41;4938426;28;20074;-77
2023/09/14 08:05:44;;;;;;;19.63;11.38;;;;;;;25.66;53.69;101401.91;4933428;28;20057;-83
2023/09/14 08:08:11;;;;;;;14.05;11.30;;;;;;;25.52;53.81;101389.44;4929215;28;20273;-77
2023/09/14 08:10:37;;;;;;;18.98;12.95;;;;;;;25.59;53.86;101409.25;4919380;28;20753;-80
2023/09/14 08:13:11;;;;;;;12.45;10.52;;;;;;;25.52;54.77;101398.41;4921215;28;20082;-78
2023/09/14 08:15:40;;;;;;;13.20;9.93;;;;;;;25.33;55.09;101359.38;4930055;28;20623;-79
2023/09/14 08:18:07;;;;;;;20.48;11.65;;;;;;;25.71;53.90;101410.25;4929792;28;20060;-79
2023/09/14 08:20:42;;;;;;;18.92;11.75;;;;;;;25.77;53.32;101412.06;4939815;28;20063;-81
2023/09/14 08:23:15;;;;;;;32.50;14.73;;;;;;;25.77;53.85;101422.13;4921598;28;20413;-80
2023/09/14 08:25:46;;;;;;;;;;;;;;;25.67;54.01;101417.16;4935121;28;20058;-80
2023/09/14 08:28:15;;;;;;;27.88;14.02;;;;;;;25.79;54.42;101428.19;4936873;28;19965;-80
2023/09/14 08:30:43;;;;;;;18.55;13.80;;;;;;;25.46;53.59;101361.22;4928944;28;20043;-81
2023/09/14 08:33:11;;;;;;;14.57;12.27;;;;;;;25.77;54.12;101431.13;4938416;28;20050;-81
2023/09/14 08:35:46;;;;;;;21.75;13.27;;;;;;;25.64;53.23;101389.59;4936489;28;20320;-81
2023/09/14 08:38:13;;;;;;;14.93;10.88;;;;;;;25.61;54.55;101396.28;4942976;28;20082;-80
2023/09/14 08:40:46;;;;;;;27.48;12.38;;;;;;;25.80;54.27;101417.09;4939792;28;20130;-79
2023/09/14 08:43:14;;;;;;;20.05;11.95;;;;;;;25.88;53.84;101417.94;4943654;28;20073;-80
2023/09/14 08:45:41;;;;;;;16.67;12.45;;;;;;;25.90;53.50;101413.06;4938732;28;20070;-78
2023/09/14 08:48:11;;;;;;;13.07;9.55;;;;;;;25.76;54.31;101391.38;4943912;28;20448;-80
2023/09/14 08:50:40;;;;;;;15.20;10.98;;;;;;;25.76;53.68;101375.06;4935348;28;20078;-79
2023/09/14 08:53:07;;;;;;;18.02;11.82;;;;;;;26.07;53.04;101405.22;4938438;28;20347;-80
2023/09/14 08:55:37;;;;;;;16.15;12.25;;;;;;;25.70;53.10;101351.44;4948499;28;20539;-79
2023/09/14 08:58:05;;;;;;;15.10;10.18;;;;;;;25.75;53.66;101357.09;4945041;28;20432;-78
2023/09/14 09:00:33;;;;;;;14.88;11.85;;;;;;;26.08;53.59;101402.31;4945896;28;20251;-79
2023/09/14 09:03:00;;;;;;;16.15;11.85;;;;;;;26.18;53.34;101413.53;4932390;28;20225;-79
2023/09/14 09:05:27;;;;;;;18.10;11.40;;;;;;;26.30;52.50;101415.53;4946726;28;20682;-78
2023/09/14 09:07:55;;;;;;;15.13;10.02;;;;;;;26.11;52.23;101371.09;4930720;28;20047;-77
2023/09/14 09:10:31;;;;;;;21.23;11.82;;;;;;;26.42;52.84;101408.31;4935791;28;20054;-76
2023/09/14 09:13:00;;;;;;;15.43;11.55;;;;;;;26.53;52.43;101399.47;4934331;28;20491;-78
2023/09/14 09:15:32;;;;;;;16.13;10.70;;;;;;;26.62;51.85;101405.47;4930239;28;20051;-79
2023/09/14 09:18:04;;;;;;;15.73;10.77;;;;;;;26.61;52.47;101406.53;4930097;28;20100;-78
2023/09/14 09:20:36;;;;;;;21.08;10.77;;;;;;;26.52;51.03;101372.44;4937398;28;20133;-79
2023/09/14 09:23:04;;;;;;;20.92;11.45;;;;;;;26.76;50.59;101406.16;4935491;28;20150;-80
2023/09/14 09:25:44;;;;;;;20.40;10.52;;;;;;;26.60;50.28;101378.47;4921874;28;20112;-79
2023/09/14 09:28:14;;;;;;;18.85;11.30;;;;;;;26.87;50.93;101402.72;4927102;28;20421;-79
2023/09/14 09:30:42;;;;;;;19.02;11.18;;;;;;;27.01;50.83;101406.94;4923155;28;20137;-79
2023/09/14 09:33:10;;;;;;;20.88;12.05;;;;;;;27.00;50.89;101394.38;4921508;28;20381;-80
2023/09/14 09:35:41;;;;;;;18.52;11.65;;;;;;;27.13;51.60;101407.03;4942077;28;20343;-79
2023/09/14 09:38:18;;;;;;;20.10;11.23;;;;;;;26.89;50.84;101375.22;4936225;28;20558;-80
2023/09/14 09:40:45;;;;;;;22.35;10.65;;;;;;;27.16;51.52;101408.47;4938463;28;20078;-80
2023/09/14 09:43:16;;;;;;;22.63;11.63;;;;;;;26.88;50.33;101341.72;4929762;28;20414;-79
2023/09/14 09:45:54;;;;;;;15.05;10.70;;;;;;;27.17;50.87;101391.06;4912063;28;20078;-80
2023/09/14 09:48:30;;;;;;;20.25;12.35;;;;;;;27.34;50.45;101402.22;4899288;28;20047;-79
2023/09/14 09:51:00;;;;;;;14.82;11.10;;;;;;;27.31;50.17;101406.25;4920179;28;20055;-81
2023/09/14 09:53:27;;;;;;;25.00;11.55;;;;;;;27.40;50.63;101393.09;4937411;28;20043;-79
2023/09/14 09:55:57;;;;;;;16.63;10.93;;;;;;;27.32;50.55;101367.00;4948261;28;20053;-78
2023/09/14 09:58:38;;;;;;;13.93;11.00;;;;;;;27.73;50.80;101402.75;4940687;28;20706;-78
2023/09/14 10:01:08;;;;;;;15.95;11.13;;;;;;;27.59;50.16;101381.09;4946069;28;20574;-80
2023/09/14 10:03:35;;;;;;;25.55;11.98;;;;;;;27.58;50.18;101362.28;4936039;28;20561;-80
2023/09/14 10:06:02;;;;;;;23.20;13.20;;;;;;;27.83;49.59;101376.59;4941136;28;20042;-79
2023/09/14 10:08:29;;;;;;;20.42;10.23;;;;;;;28.16;49.40;101385.34;4936714;28;20113;-79
2023/09/14 10:10:56;;;;;;;17.35;12.30;;;;;;;28.21;49.06;101393.69;4938189;28;20054;-80
2023/09/14 10:13:25;;;;;;;15.43;11.27;;;;;;;28.34;48.77;101382.53;4930942;28;20346;-79
2023/09/14 10:15:53;;;;;;;15.32;10.60;;;;;;;28.29;49.01;101385.97;4941823;28;20506;-79
2023/09/14 10:18:23;;;;;;;17.17;13.25;;;;;;;28.46;47.88;101379.84;4940621;28;20133;-79
2023/09/14 10:20:51;;;;;;;15.98;11.98;;;;;;;28.66;47.70;101383.03;4946680;28;20068;-78
2023/09/14 10:23:25;;;;;;;16.83;11.63;;;;;;;28.71;48.02;101383.16;4941029;28;20467;-80
2023/09/14 10:25:54;;;;;;;20.77;12.98;;;;;;;28.68;47.95;101378.19;4947311;28;20402;-80
2023/09/14 10:28:26;;;;;;;21.38;13.43;;;;;;;28.75;47.69;101376.16;4942713;28;20059;-80
2023/09/14 10:31:04;;;;;;;15.07;12.27;;;;;;;28.93;47.17;101374.34;4959450;28;20071;-80
2023/09/14 10:33:36;;;;;;;19.60;12.13;;;;;;;28.68;46.35;101311.78;4950180;28;20246;-78
2023/09/14 10:36:04;;;;;;;16.88;10.75;;;;;;;28.91;45.45;101314.47;4926285;28;20086;-79
2023/09/14 10:38:32;;;;;;;18.13;11.50;;;;;;;29.34;45.49;101375.22;4940173;28;20126;-77
2023/09/14 10:40:59;;;;;;;18.73;11.98;;;;;;;29.34;45.47;101365.13;4940630;28;20567;-78
2023/09/14 10:43:29;;;;;;;15.18;11.10;;;;;;;29.33;46.38;101366.19;4940184;28;20278;-78
2023/09/14 10:46:01;;;;;;;18.77;13.68;;;;;;;29.28;46.29;101354.34;4933084;28;20043;-81
2023/09/14 10:48:30;;;;;;;19.27;14.10;;;;;;;29.39;45.65;101334.31;4934351;28;20061;-79
2023/09/14 10:50:58;;;;;;;17.33;11.70;;;;;;;29.56;46.08;101354.31;4946891;28;20692;-79
2023/09/14 10:53:26;;;;;;;20.95;10.82;;;;;;;29.53;46.28;101349.34;4950252;28;20451;-80
2023/09/14 10:55:53;;;;;;;14.65;12.43;;;;;;;29.35;45.18;101300.34;4940040;28;20054;-81
2023/09/14 10:58:25;;;;;;;14.52;11.10;;;;;;;29.35;44.66;101278.47;4950958;28;20113;-80
2023/09/14 11:01:00;;;;;;;15.70;10.40;;;;;;;29.77;45.18;101341.06;4929203;28;20050;-79
2023/09/14 11:04:10;;;;;;;;;;;;;;;29.72;45.37;101339.06;4943464;28;20051;-78
2023/09/14 11:06:45;;;;;;;18.70;11.38;;;;;;;29.80;45.20;101335.09;4943644;28;20009;-78
2023/09/14 11:09:15;;;;;;;16.60;9.98;;;;;;;29.90;45.76;101329.78;4943403;28;20050;-78
2023/09/14 11:11:44;;;;;;;13.73;10.27;;;;;;;29.86;45.06;101328.66;4940939;28;20323;-81
2023/09/14 11:14:14;;;;;;;18.85;10.88;;;;;;;29.57;45.22;101286.78;4940093;28;20070;-77
2023/09/14 11:16:46;;;;;;;21.70;10.93;;;;;;;29.94;43.68;101313.72;4938301;28;20414;-80
2023/09/14 11:19:29;;;;;;;20.17;11.38;;;;;;;29.88;43.95;101262.69;4937538;28;20053;-78
2023/09/14 11:22:16;;;;;;;17.48;10.30;;;;;;;30.11;44.46;101319.19;4926930;28;20058;-79
2023/09/14 11:24:45;;;;;;;13.30;9.88;;;;;;;29.80;44.12;101277.63;4938464;28;20051;-79